Flight Track Log - Related Links

Times and Time Zones

All times are in EST time to prevent confusion due to time zone crossing. See the N1944E flight status page for this flight to view local times or setup timezone preferences in your user account.

Time Position Orientation Groundspeed Altitude Reporting Facility
EST Latitude Longitude Course Direction KTS MPH feet Rate Location/Type
Sat 07:12:42 PM 45.7658 -111.1358 135° Southeast 114 131 4,900  Level Salt Lake Center
Sat 07:13:00 PM 45.7592 -111.1264 135° Southeast 118 136 5,200 835 Climbing Salt Lake Center
Sat 07:14:01 PM 45.7378 -111.0833 125° Southeast 140 161 6,000 818 Climbing Salt Lake Center
Sat 07:14:06 PM 45.7358 -111.0792 124° Southeast 133 153 6,100 909 Climbing Salt Lake Center
Sat 07:15:07 PM 45.7106 -111.0303 127° Southeast 149 171 7,000 893 Climbing Salt Lake Center
Sat 07:16:07 PM 45.6800 -110.9858 135° Southeast 153 176 7,900 942 Climbing Salt Lake Center
Sat 07:17:08 PM 45.6522 -110.9347 128° Southeast 158 182 8,900 984 Climbing Salt Lake Center
Sat 07:18:09 PM 45.6225 -110.8822 129° Southeast 164 189 9,900 934 Climbing Salt Lake Center
Sat 07:19:10 PM 45.5914 -110.8306 131° Southeast 168 193 10,800 934 Climbing Salt Lake Center
Sat 07:20:11 PM 45.5586 -110.7758 131° Southeast 176 203 11,800 934 Climbing Salt Lake Center
Sat 07:21:12 PM 45.5264 -110.7183 129° Southeast 181 208 12,700 885 Climbing Salt Lake Center
Sat 07:22:13 PM 45.4917 -110.6583 130° Southeast 191 220 13,600 885 Climbing Salt Lake Center
Sat 07:23:14 PM 45.4561 -110.5967 129° Southeast 199 229 14,500 885 Climbing Salt Lake Center
Sat 07:24:15 PM 45.4228 -110.5456 133° Southeast 195 224 15,400 738 Climbing Salt Lake Center
Sat 07:25:16 PM 45.3889 -110.4833 128° Southeast 196 226 16,000 295 Climbing Salt Lake Center
Sat 07:26:17 PM 45.3481 -110.4161 131° Southeast 223 257 16,000  Level Salt Lake Center
Sat 07:27:18 PM 45.3072 -110.3456 129° Southeast 231 266 16,000 295 Level Salt Lake Center
Sat 07:28:19 PM 45.2717 -110.2819 128° Southeast 208 239 16,600 492 Climbing Salt Lake Center
Sat 07:29:20 PM 45.2319 -110.2072 127° Southeast 200 230 17,000 148 Climbing Salt Lake Center
Sat 07:30:21 PM 45.1969 -110.1494 131° Southeast 195 224 16,900 -49 Descending Salt Lake Center
Sat 07:31:22 PM 45.1553 -110.0833 132° Southeast 213 245 16,900  Level Salt Lake Center
Sat 07:32:23 PM 45.1136 -110.0172 132° Southeast 222 255 16,900 49 Level Salt Lake Center
Sat 07:33:24 PM 45.0708 -109.9444 130° Southeast 230 265 17,000 98 Climbing Salt Lake Center
Sat 07:35:00 PM 45.0174 -109.8480 128° Southeast  Level FlightAware Approximate
Sat 07:42:00 PM 44.7755 -109.4425 130° Southeast  Level FlightAware Approximate
Sat 07:43:00 PM 44.7404 -109.3844 130° Southeast  Level FlightAware Approximate
Sat 07:44:00 PM 44.7053 -109.3264 130° Southeast  Level FlightAware Approximate
Sat 07:45:00 PM 44.6702 -109.2685 130° Southeast  Level FlightAware Approximate
Sat 07:46:00 PM 44.6350 -109.2106 130° Southeast  Level FlightAware Approximate
Sat 07:47:00 PM 44.5999 -109.1529 131° Southeast  Level FlightAware Approximate
Sat 07:48:00 PM 44.5647 -109.0952 131° Southeast  Level FlightAware Approximate
Sat 07:49:00 PM 44.5294 -109.0375 131° Southeast  Level FlightAware Approximate
Sat 07:50:00 PM 44.5167 -109.0167 130° Southeast  Level FlightAware Approximate
Sat 07:51:00 PM 44.5202 -109.0238 130° Southeast  Level Estimated
Sat 07:52:00 PM 44.5167 -109.0167 130° Southeast  Level FlightAware Approximate
Sat 07:53:00 PM 44.5202 -109.0238 130° Southeast  Level Estimated
Sat 07:54:00 PM 44.5167 -109.0167 130° Southeast  Level FlightAware Approximate
Sat 07:55:00 PM 44.5202 -109.0238 130° Southeast  Level Estimated
Sat 07:56:00 PM 44.5167 -109.0167 130° Southeast  Level FlightAware Approximate
Sat 07:57:00 PM 44.5202 -109.0238 130° Southeast  Level Estimated
Sat 07:58:00 PM 44.5167 -109.0167 130° Southeast  Level FlightAware Approximate
Sat 07:59:00 PM 44.5202 -109.0238 130° Southeast  Level Estimated
Sat 08:00:00 PM 44.5167 -109.0167 130° Southeast  Level FlightAware Approximate
Sat 08:01:00 PM 44.5202 -109.0238 130° Southeast  Level Estimated
Sat 08:02:00 PM 44.5167 -109.0167 130° Southeast  Level FlightAware Approximate
Sat 08:03:00 PM 44.5202 -109.0238 130° Southeast  Level Estimated
Sat 08:04:00 PM 44.5167 -109.0167 130° Southeast  Level FlightAware Approximate
Sat 08:05:00 PM 44.5202 -109.0238 130° Southeast  Level Estimated

Login

Don't have an account? Register now (free) for customized features, flight alerts, and more!